| Shipment Reliability and Frequency | Volume of Goods |
|---|---|
| Avg. Shipments per Month: 20.83 | Average TEU per month: 33.71 |
| Active Months: 12 | Average TEU per Shipment: 1.62 |
| Shipment Frequency Std. Dev.: 6.58 |
| HS Code | Shipments |
|---|---|
| 220410 Wine; sparkling | 972 shipments |
| 220600 Beverages, fermented; (e.g. cider, perry, mead, sake) | 191 shipments |
| 220410.0 Wine of fresh grapes, including fortified wines; grape must other than that of heading no. 2009 | 95 shipments |
| 220421 Wine; still, in containers holding 2 litres or less | 90 shipments |
| 220600.0 Fermented beverages, n.e.c. in chapter 22; (e.g. cider, perry, mead, sake) | 34 shipments |
| 842122 Machinery; for filtering or purifying beverages other than water | 6 shipments |
| 293628 Vitamins; vitamin E and its derivatives, unmixed | 4 shipments |
| 220421.0 Wine of fresh grapes, including fortified wines; grape must other than that of heading no. 2009 | 3 shipments |
| 847439 Machines; for mixing or kneading mineral substances, excluding concrete mixers and machines for mixing mineral substances with bitumen | 2 shipments |
| 170240.0 Sugars, including lactose, maltose, glucose or fructose in solid form; sugar syrups without added flavouring or colouring matter; artificial honey, whether or not mixed with natural honey; caramel | 1 shipments |
| 270730 Oils and products of the distillation of high temperature coal tar; xylol (xylenes) | 1 shipments |
| 320412 Dyes; acid, whether or not premetallised and preparations based thereon, mordant dyes and preparations based thereon | 1 shipments |
| 338592 | 1 shipments |
| 339893 | 1 shipments |
| 441520 Wood; pallets, box pallets and other load boards; pallet collars | 1 shipments |
| 441520.0 Packing cases, boxes, crates, drums and similar packings, of wood; cable-drums of wood; pallets, box pallets and other load boards, of wood; pallet collars of wood | 1 shipments |
| 690510 Ceramic roofing tiles | 1 shipments |
| 690510.0 Roofing tiles, chimney-pots, cowls, chimney liners, architectural ornaments and other ceramic constructional goods | 1 shipments |
| 831000 Sign plates, name-plates, address-plates and similar plates, numbers, letters and other symbols; of base metal, excluding those of heading no. 9405 | 1 shipments |
| Arrival Date | Bill Of Lading | Consignee | Weight | HS Code | Description |
|---|---|---|---|---|---|
| 2026-03-29 | FLLI00489475 | SOUTHERN GLAZERS WINE AND SPIRIT | 1134.0 kg | 220410.0 | SPARKLING WINE PO KATY |
| 2026-03-29 | FLLI00492127 | SOUTHERN GLAZERS WINE AND SPIRIT | 1415.0 kg | 220410.0 | SPARKLING WINE PO KATY |
| 2026-03-28 | ITGB7517168P0796 | LATITUDE WINE INC | 17944.0 kg | 220410.0 | WINE |
| 2026-03-27 | ABTBABTM5S004146 | BC LIQUOR DISTRIBUTION BRANCH | 7046.0 kg | 220600.0 | STILL WINE |
| 2026-03-27 | ABTBABTM5S004091 | CONNECT LOGISTICS SERVICES INC | 3181.0 kg | 220600.0 | STILL WINE |
| 2026-03-27 | ITGB7517454P1145 | LATITUDE WINE INC | 14870.0 kg | 220600.0 | BEVERAGES |
| 2026-03-25 | ABTBABT29S123843 | AMERICAL BEVERAGE GROUP INC | 11715.0 kg | 220600.0 | STILL WINE |
| 2026-03-24 | ITGB7518050P1238 | LATITUDE WINE INC | 13624.0 kg | 220410.0 | WINE |
| 2026-03-20 | ITGB7518446P3006 | LATITUDE WINE INC | 21484.0 kg | 220600.0 | BEVERAGES |
| 2026-03-16 | FLLI00486468 | SOUTHERN GLAZERS WINE AND SPIRITS | 11374.0 kg | 220410.0 | SPARKLING WINE PO FORT WORTH |
| 2026-03-16 | FLLI00489467 | SOUTHERN GLAZERS WINE AND SPIRITS | 1606.0 kg | 220410.0 | SPARKLING WINE PO FORT WORTH |
| 2026-03-13 | FLLI00485946 | SOUTHERN GLAZERS WINE AND SPIRIT | 8631.0 kg | 220600.0 | STILL AND SPARKLING WINE PO KAT |
| 2026-03-11 | ITGB7516437P6309 | LATITUDE WINE INC | 6009.0 kg | 220410.0 | WINE |
| 2026-03-11 | ITGB7516561P7403 | LATITUDE WINE INC | 7011.0 kg | 220410.0 | WINE |
| 2026-03-11 | ITGB7516942P8323 | LATITUDE WINE INC | 11226.0 kg | 220410.0 | WINE |
| 2026-03-09 | ITGB7517169P9640 | LATITUDE WINE INC | 1048.0 kg | 220410.0 | WINE |
| 2026-03-09 | ITGB7517426P9802 | LATITUDE WINE INC | 1106.0 kg | 220410.0 | WINE |
| 2026-03-05 | ITGB7514895P2095 | LATITUDE WINE INC | 1002.0 kg | 220410.0 | WINE |
| 2026-03-04 | ITGB7515417P2992 | LATITUDE WINE INC | 13275.0 kg | 220410.0 | WINE |
| 2026-03-04 | ABTBABT29S123400 | AMERICAL BEVERAGE GROUP INC | 18744.0 kg | 220600.0 | STILL WINE |
| 2026-03-04 | ITGB7515739P5393 | LATITUDE WINE INC | 7511.0 kg | 220410.0 | WINE |
| 2026-03-04 | ABTBABT29S123484 | AMERICAL BEVERAGE GROUP INC | 18744.0 kg | 220600.0 | STILL WINE |
| 2026-03-04 | ITGB7516305P6177 | LATITUDE WINE INC | 9723.0 kg | 220410.0 | WINE |
| 2026-02-28 | ITGB7514892P2610 | LATITUDE WINE INC | 7011.0 kg | 220410.0 | WINE |
| 2026-02-24 | ITGB7514145P0405 | LATITUDE WINE INC | 10164.0 kg | 220410.0 | WINE |
| 2026-02-23 | MEDURL424666 | INTERNATIONAL CRUISE DUTY FREE INC | 10014.0 kg | 170240.0 | CASE(S) WINES ; CUSTOMS CODE GROS S WEIGHT . KGM |
| 2026-02-15 | ITGB7515762P4349 | LATITUDE WINE INC | 6311.0 kg | 220410.0 | WINE |
| 2026-02-09 | ITGB7513843P8500 | LATITUDE WINE INC | 1002.0 kg | 220410.0 | WINE |
| 2026-02-09 | ITGB7513845P8497 | LATITUDE WINE INC | 7476.0 kg | 220410.0 | WINE |
| 2026-02-09 | ITGB7513846P8813 | LATITUDE WINE INC | 5531.0 kg | 220410.0 | WINE |
| 2026-02-05 | ITGB7513847P8647 | LATITUDE WINE INC | 2003.0 kg | 220410.0 | WINE |
| 2026-02-05 | ITGB7513749P7643 | CASA BRUNO | 8699.0 kg | 220600.0 | BEVERAGES |
| 2026-02-02 | ITGB7513352P5644 | LATITUDE WINE INC | 8512.0 kg | 220410.0 | WINE |
| 2026-02-02 | ITGB7514035P8653 | LATITUDE WINE INC | 1076.0 kg | 220410.0 | WINE |
| 2026-02-02 | ITGB7514034P8658 | LATITUDE WINE INC | 6404.0 kg | 220410.0 | WINE |
| 2026-01-27 | ITGB7513439P7083 | LATITUDE WINE INC | 3005.0 kg | 220410.0 | WINE |
| 2026-01-27 | ITGB7513445P7237 | LATITUDE WINE INC | 5112.0 kg | 220410.0 | WINE |
| 2026-01-27 | ABTBABTM5S003891 | CONNECT LOGISTICS SERVICES INC | 3173.0 kg | 220600.0 | STILL WINE |
| 2026-01-17 | ITGB7513858P7914 | LATITUDE WINE INC | 9014.0 kg | 220410.0 | WINE |
| 2026-01-15 | ITGB7514888P2477 | LATITUDE WINE INC | 2003.0 kg | 220410.0 | WINE |
| 2026-01-13 | ITGB7512608P6627 | 19694.0 kg | 220600.0 | BEVERAGES | |
| 2026-01-13 | ITGB7511255P1129 | LATITUDE WINE INC | 7627.0 kg | 220410.0 | WINE |
| 2026-01-13 | ITGB7511342P1291 | LATITUDE WINE INC | 7452.0 kg | 220410.0 | WINE |
| 2026-01-11 | ITGB7512196P3632 | LATITUDE WINE INC | 3109.0 kg | 220410.0 | WINE |
| 2026-01-09 | FLLI00470931 | SOUTHERN GLAZERS WINE AND SPIRIT | 3463.0 kg | 220421.0 | RED WINE PO KATY |
| 2026-01-09 | FLLI00474745 | SOUTHERN GLAZERS WINE AND SPIRIT | 1143.0 kg | 220410.0 | SPARKLING WINE PO KATY |
| 2026-01-07 | ITGB7512600P6513 | 19638.0 kg | 220600.0 | BEVERAGES | |
| 2026-01-04 | ITGB7512186P3514 | LATITUDE WINE INC | 4367.0 kg | 220410.0 | WINE |
| 2026-01-02 | ITGB7510922P1856 | LATITUDE WINE INC | 10317.0 kg | 220410.0 | WINE |
| 2026-01-02 | ITGB7511976P4124 | 16887.0 kg | 220600.0 | BEVERAGES |